This is the latest recevied weather packets stored in our database for station/object HP1MRA-15. If no packets are shown the sender has not sent any weather packets the latest 10 day(s).
| Time | Temp. | Humidity | Pressure | Rain* | Wind** | Luminosity | Snow |
|---|---|---|---|---|---|---|---|
| 1777736841 | 31.67° C | 72% | 1003.7 hPa | 0 mm | - | - | - |
| 1777736542 | 31.67° C | 72% | 1003.7 hPa | 0 mm | - | - | - |
| 1777736242 | 31.67° C | 73% | 1003.6 hPa | 0 mm | - | - | - |
| 1777735941 | 31.11° C | 75% | 1003.8 hPa | 0 mm | - | - | - |
| 1777735642 | 31.11° C | 74% | 1003.8 hPa | 0 mm | - | - | - |
| 1777735341 | 30.56° C | 75% | 1003.7 hPa | 0 mm | - | - | - |
| 1777735042 | 30.56° C | 74% | 1003.5 hPa | 0 mm | - | - | - |
| 1777734742 | 30.56° C | 75% | 1003.6 hPa | 0 mm | - | - | - |
| 1777734441 | 30.56° C | 74% | 1003.7 hPa | 0 mm | - | - | - |
| 1777734142 | 31.11° C | 72% | 1003.6 hPa | 0 mm | - | - | - |
| 1777733839 | 31.11° C | 72% | 1003.5 hPa | 0 mm | - | - | - |
| 1777733540 | 31.11° C | 72% | 1003.2 hPa | 0 mm | - | - | - |
| 1777733240 | 31.67° C | 70% | 1003.2 hPa | 0 mm | - | - | - |
| 1777732938 | 31.67° C | 74% | 1003.2 hPa | 0 mm | - | - | - |
| 1777732637 | 31.67° C | 73% | 1003.1 hPa | 0 mm | - | - | - |
| 1777732038 | 31.11° C | 74% | 1003 hPa | 0 mm | - | - | - |
| 1777731738 | 31.11° C | 73% | 1003.1 hPa | 0 mm | - | - | - |
| 1777731438 | 31.11° C | 73% | 1003 hPa | 0 mm | - | - | - |
| 1777731138 | 31.67° C | 72% | 1002.8 hPa | 0 mm | - | - | - |
| 1777730835 | 31.67° C | 70% | 1002.7 hPa | 0 mm | - | - | - |
| 1777730536 | 32.22° C | 70% | 1002.7 hPa | 0 mm | - | - | - |
| 1777730236 | 32.22° C | 70% | 1002.8 hPa | 0 mm | - | - | - |
| 1777729934 | 32.22° C | 71% | 1002.8 hPa | 0 mm | - | - | - |
| 1777729633 | 31.67° C | 74% | 1002.6 hPa | 0 mm | - | - | - |
| 1777729210 | 31.11° C | 76% | 1002.7 hPa | 0 mm | - | - | - |
* Rain latest hour (hover to see other rain measurements)
** Current wind speed in m/s (hover to see current wind gust speed)